sensor_id;sensor_type;location;lat;lon;timestamp;temperature;humidity
14401;DHT22;7285;50.894;5.462;2022-08-06T00:00:12;11.60;1.00
14401;DHT22;7285;50.894;5.462;2022-08-06T00:02:39;11.50;1.00
14401;DHT22;7285;50.894;5.462;2022-08-06T00:05:06;11.40;1.00
14401;DHT22;7285;50.894;5.462;2022-08-06T00:07:34;11.40;1.00
14401;DHT22;7285;50.894;5.462;2022-08-06T00:10:01;11.40;1.00
14401;DHT22;7285;50.894;5.462;2022-08-06T00:12:29;11.40;1.00
14401;DHT22;7285;50.894;5.462;2022-08-06T00:14:56;11.40;1.00
14401;DHT22;7285;50.894;5.462;2022-08-06T00:17:24;11.30;1.00
14401;DHT22;7285;50.894;5.462;2022-08-06T00:19:51;11.30;1.00
14401;DHT22;7285;50.894;5.462;2022-08-06T00:22:18;11.30;1.00
14401;DHT22;7285;50.894;5.462;2022-08-06T00:24:45;11.20;1.00
14401;DHT22;7285;50.894;5.462;2022-08-06T00:27:12;11.20;1.00
14401;DHT22;7285;50.894;5.462;2022-08-06T00:29:39;11.10;1.00
14401;DHT22;7285;50.894;5.462;2022-08-06T00:32:06;11.10;1.00
14401;DHT22;7285;50.894;5.462;2022-08-06T00:34:34;11.00;1.00
14401;DHT22;7285;50.894;5.462;2022-08-06T00:37:01;11.00;1.00
14401;DHT22;7285;50.894;5.462;2022-08-06T00:39:28;10.90;1.00
14401;DHT22;7285;50.894;5.462;2022-08-06T00:41:55;10.90;1.00
14401;DHT22;7285;50.894;5.462;2022-08-06T00:44:22;10.80;1.00
14401;DHT22;7285;50.894;5.462;2022-08-06T00:46:49;10.80;1.00
14401;DHT22;7285;50.894;5.462;2022-08-06T00:49:16;10.80;1.00
14401;DHT22;7285;50.894;5.462;2022-08-06T00:51:44;10.70;1.00
14401;DHT22;7285;50.894;5.462;2022-08-06T00:54:11;10.70;21.20
14401;DHT22;7285;50.894;5.462;2022-08-06T00:56:38;10.60;99.90
14401;DHT22;7285;50.894;5.462;2022-08-06T00:59:05;10.60;99.90
14401;DHT22;7285;50.894;5.462;2022-08-06T01:01:32;10.50;99.90
14401;DHT22;7285;50.894;5.462;2022-08-06T01:03:59;10.60;99.90
14401;DHT22;7285;50.894;5.462;2022-08-06T01:06:26;10.50;99.90
14401;DHT22;7285;50.894;5.462;2022-08-06T01:08:55;10.50;99.90
14401;DHT22;7285;50.894;5.462;2022-08-06T01:11:22;10.50;99.90
14401;DHT22;7285;50.894;5.462;2022-08-06T01:13:49;10.40;99.90
14401;DHT22;7285;50.894;5.462;2022-08-06T01:16:23;10.40;99.90
14401;DHT22;7285;50.894;5.462;2022-08-06T01:18:57;10.40;99.90
14401;DHT22;7285;50.894;5.462;2022-08-06T01:21:49;10.30;99.90
14401;DHT22;7285;50.894;5.462;2022-08-06T01:24:50;10.30;99.90
14401;DHT22;7285;50.894;5.462;2022-08-06T01:27:32;10.20;99.90
14401;DHT22;7285;50.894;5.462;2022-08-06T01:30:04;10.10;99.90
14401;DHT22;7285;50.894;5.462;2022-08-06T01:32:35;10.10;99.90
14401;DHT22;7285;50.894;5.462;2022-08-06T01:35:06;10.00;99.90
14401;DHT22;7285;50.894;5.462;2022-08-06T01:37:38;10.00;99.90
14401;DHT22;7285;50.894;5.462;2022-08-06T01:40:12;10.00;99.90
14401;DHT22;7285;50.894;5.462;2022-08-06T01:42:41;9.90;99.90
14401;DHT22;7285;50.894;5.462;2022-08-06T01:45:11;9.90;99.90
14401;DHT22;7285;50.894;5.462;2022-08-06T01:47:42;9.90;99.90
14401;DHT22;7285;50.894;5.462;2022-08-06T01:50:11;9.80;99.90
14401;DHT22;7285;50.894;5.462;2022-08-06T01:52:42;9.80;99.90
14401;DHT22;7285;50.894;5.462;2022-08-06T01:55:12;9.70;1.00
14401;DHT22;7285;50.894;5.462;2022-08-06T01:57:47;9.80;1.00
14401;DHT22;7285;50.894;5.462;2022-08-06T02:00:16;9.80;1.00
14401;DHT22;7285;50.894;5.462;2022-08-06T02:02:43;9.80;1.00
14401;DHT22;7285;50.894;5.462;2022-08-06T02:05:12;9.70;1.00
14401;DHT22;7285;50.894;5.462;2022-08-06T02:07:41;9.80;1.00
14401;DHT22;7285;50.894;5.462;2022-08-06T02:10:11;9.60;1.00
14401;DHT22;7285;50.894;5.462;2022-08-06T02:12:42;9.60;1.00
14401;DHT22;7285;50.894;5.462;2022-08-06T02:15:14;9.60;1.00
14401;DHT22;7285;50.894;5.462;2022-08-06T02:17:47;9.60;1.00
14401;DHT22;7285;50.894;5.462;2022-08-06T02:20:25;9.60;1.00
14401;DHT22;7285;50.894;5.462;2022-08-06T02:22:53;9.60;1.00
14401;DHT22;7285;50.894;5.462;2022-08-06T02:25:23;9.50;1.00
14401;DHT22;7285;50.894;5.462;2022-08-06T02:27:53;9.50;1.00
14401;DHT22;7285;50.894;5.462;2022-08-06T02:30:21;9.50;1.00
14401;DHT22;7285;50.894;5.462;2022-08-06T02:32:50;9.40;1.00
14401;DHT22;7285;50.894;5.462;2022-08-06T02:35:17;9.40;1.00
14401;DHT22;7285;50.894;5.462;2022-08-06T02:37:48;9.40;1.00
14401;DHT22;7285;50.894;5.462;2022-08-06T02:40:19;9.40;1.00
14401;DHT22;7285;50.894;5.462;2022-08-06T02:42:55;9.40;1.00
14401;DHT22;7285;50.894;5.462;2022-08-06T02:45:32;9.50;1.00
14401;DHT22;7285;50.894;5.462;2022-08-06T02:48:09;9.50;1.00
14401;DHT22;7285;50.894;5.462;2022-08-06T02:50:40;9.50;1.00
14401;DHT22;7285;50.894;5.462;2022-08-06T02:53:09;9.40;1.00
14401;DHT22;7285;50.894;5.462;2022-08-06T02:55:39;9.30;1.00
14401;DHT22;7285;50.894;5.462;2022-08-06T02:58:13;9.30;1.00
14401;DHT22;7285;50.894;5.462;2022-08-06T03:00:44;9.30;1.00
14401;DHT22;7285;50.894;5.462;2022-08-06T03:03:13;9.20;1.00
14401;DHT22;7285;50.894;5.462;2022-08-06T03:05:42;9.20;1.00
14401;DHT22;7285;50.894;5.462;2022-08-06T03:08:14;9.20;1.00
14401;DHT22;7285;50.894;5.462;2022-08-06T03:10:43;9.20;1.00
14401;DHT22;7285;50.894;5.462;2022-08-06T03:13:12;9.20;1.00
14401;DHT22;7285;50.894;5.462;2022-08-06T03:15:40;9.20;15.70
14401;DHT22;7285;50.894;5.462;2022-08-06T03:18:09;9.20;51.90
14401;DHT22;7285;50.894;5.462;2022-08-06T03:20:39;9.20;1.00
14401;DHT22;7285;50.894;5.462;2022-08-06T03:23:08;9.10;1.00
14401;DHT22;7285;50.894;5.462;2022-08-06T03:25:37;9.10;1.00
14401;DHT22;7285;50.894;5.462;2022-08-06T03:28:05;9.00;1.00
14401;DHT22;7285;50.894;5.462;2022-08-06T03:30:35;9.00;1.00
14401;DHT22;7285;50.894;5.462;2022-08-06T03:33:08;8.90;1.00
14401;DHT22;7285;50.894;5.462;2022-08-06T03:35:37;8.90;1.00
14401;DHT22;7285;50.894;5.462;2022-08-06T03:38:07;8.90;1.00
14401;DHT22;7285;50.894;5.462;2022-08-06T03:40:36;8.80;1.00
14401;DHT22;7285;50.894;5.462;2022-08-06T03:43:03;8.90;1.00
14401;DHT22;7285;50.894;5.462;2022-08-06T03:45:35;8.80;1.00
14401;DHT22;7285;50.894;5.462;2022-08-06T03:48:04;8.80;1.00
14401;DHT22;7285;50.894;5.462;2022-08-06T03:50:34;8.80;1.00
14401;DHT22;7285;50.894;5.462;2022-08-06T03:53:04;8.70;1.00
14401;DHT22;7285;50.894;5.462;2022-08-06T03:55:35;8.70;1.00
14401;DHT22;7285;50.894;5.462;2022-08-06T03:58:05;8.70;1.00
14401;DHT22;7285;50.894;5.462;2022-08-06T04:00:40;8.60;1.00
14401;DHT22;7285;50.894;5.462;2022-08-06T04:03:08;8.60;1.00
14401;DHT22;7285;50.894;5.462;2022-08-06T04:05:36;8.70;1.00
14401;DHT22;7285;50.894;5.462;2022-08-06T04:08:05;8.70;98.00
14401;DHT22;7285;50.894;5.462;2022-08-06T04:10:38;8.60;99.90
14401;DHT22;7285;50.894;5.462;2022-08-06T04:13:07;8.70;99.90
14401;DHT22;7285;50.894;5.462;2022-08-06T04:15:37;8.60;99.90
14401;DHT22;7285;50.894;5.462;2022-08-06T04:18:05;8.60;99.90
14401;DHT22;7285;50.894;5.462;2022-08-06T04:20:34;8.60;99.90
14401;DHT22;7285;50.894;5.462;2022-08-06T04:23:02;8.60;99.90
14401;DHT22;7285;50.894;5.462;2022-08-06T04:25:33;8.60;99.90
14401;DHT22;7285;50.894;5.462;2022-08-06T04:28:02;8.50;94.00
14401;DHT22;7285;50.894;5.462;2022-08-06T04:30:31;8.60;99.90
14401;DHT22;7285;50.894;5.462;2022-08-06T04:33:02;8.60;99.90
14401;DHT22;7285;50.894;5.462;2022-08-06T04:35:30;8.60;99.90
14401;DHT22;7285;50.894;5.462;2022-08-06T04:37:58;8.60;99.90
14401;DHT22;7285;50.894;5.462;2022-08-06T04:40:26;8.70;1.00
14401;DHT22;7285;50.894;5.462;2022-08-06T04:42:54;8.70;1.00
14401;DHT22;7285;50.894;5.462;2022-08-06T04:45:22;8.80;1.00
14401;DHT22;7285;50.894;5.462;2022-08-06T04:47:49;8.80;1.00
14401;DHT22;7285;50.894;5.462;2022-08-06T04:50:17;8.90;99.90
14401;DHT22;7285;50.894;5.462;2022-08-06T04:52:44;8.90;99.90
14401;DHT22;7285;50.894;5.462;2022-08-06T04:55:11;8.90;99.90
14401;DHT22;7285;50.894;5.462;2022-08-06T04:57:38;9.00;99.90
14401;DHT22;7285;50.894;5.462;2022-08-06T05:00:06;9.00;99.90
14401;DHT22;7285;50.894;5.462;2022-08-06T05:02:33;9.10;99.90
14401;DHT22;7285;50.894;5.462;2022-08-06T05:05:00;9.10;99.90
14401;DHT22;7285;50.894;5.462;2022-08-06T05:07:31;9.20;99.90
14401;DHT22;7285;50.894;5.462;2022-08-06T05:10:00;9.30;99.90
14401;DHT22;7285;50.894;5.462;2022-08-06T05:12:32;9.40;99.90
14401;DHT22;7285;50.894;5.462;2022-08-06T05:15:04;9.40;99.90
14401;DHT22;7285;50.894;5.462;2022-08-06T05:17:36;9.40;99.90
14401;DHT22;7285;50.894;5.462;2022-08-06T05:20:11;9.50;99.90
14401;DHT22;7285;50.894;5.462;2022-08-06T05:22:41;9.60;99.90
14401;DHT22;7285;50.894;5.462;2022-08-06T05:25:09;9.70;99.90
14401;DHT22;7285;50.894;5.462;2022-08-06T05:27:36;9.80;99.90
14401;DHT22;7285;50.894;5.462;2022-08-06T05:30:06;10.00;99.90
14401;DHT22;7285;50.894;5.462;2022-08-06T05:32:40;10.00;1.00
14401;DHT22;7285;50.894;5.462;2022-08-06T05:35:07;10.10;1.00
14401;DHT22;7285;50.894;5.462;2022-08-06T05:37:34;10.10;99.90
14401;DHT22;7285;50.894;5.462;2022-08-06T05:40:04;10.20;99.90
14401;DHT22;7285;50.894;5.462;2022-08-06T05:42:31;10.30;99.90
14401;DHT22;7285;50.894;5.462;2022-08-06T05:44:58;10.30;99.90
14401;DHT22;7285;50.894;5.462;2022-08-06T05:47:28;10.40;99.90
14401;DHT22;7285;50.894;5.462;2022-08-06T05:50:02;10.50;99.90
14401;DHT22;7285;50.894;5.462;2022-08-06T05:52:36;10.60;99.90
14401;DHT22;7285;50.894;5.462;2022-08-06T05:55:08;10.70;99.90
14401;DHT22;7285;50.894;5.462;2022-08-06T05:57:39;10.80;99.90
14401;DHT22;7285;50.894;5.462;2022-08-06T06:00:09;11.00;1.00
14401;DHT22;7285;50.894;5.462;2022-08-06T06:02:39;11.10;1.00
14401;DHT22;7285;50.894;5.462;2022-08-06T06:05:07;11.30;1.00
14401;DHT22;7285;50.894;5.462;2022-08-06T06:07:35;11.40;1.00
14401;DHT22;7285;50.894;5.462;2022-08-06T06:10:05;11.60;99.90
14401;DHT22;7285;50.894;5.462;2022-08-06T06:12:33;11.80;99.90
14401;DHT22;7285;50.894;5.462;2022-08-06T06:15:01;12.00;90.60
14401;DHT22;7285;50.894;5.462;2022-08-06T06:17:51;12.10;18.60
14401;DHT22;7285;50.894;5.462;2022-08-06T06:20:31;12.20;1.00
14401;DHT22;7285;50.894;5.462;2022-08-06T06:23:03;12.30;1.00
14401;DHT22;7285;50.894;5.462;2022-08-06T06:25:42;12.40;1.00
14401;DHT22;7285;50.894;5.462;2022-08-06T06:28:15;12.60;1.00
14401;DHT22;7285;50.894;5.462;2022-08-06T06:30:52;12.70;1.00
14401;DHT22;7285;50.894;5.462;2022-08-06T06:33:24;12.80;1.00
14401;DHT22;7285;50.894;5.462;2022-08-06T06:35:57;12.90;1.00
14401;DHT22;7285;50.894;5.462;2022-08-06T06:38:32;13.00;1.00
14401;DHT22;7285;50.894;5.462;2022-08-06T06:41:05;13.20;1.00
14401;DHT22;7285;50.894;5.462;2022-08-06T06:43:39;13.20;99.90
14401;DHT22;7285;50.894;5.462;2022-08-06T06:46:17;13.40;99.90
14401;DHT22;7285;50.894;5.462;2022-08-06T06:48:48;13.50;99.90
14401;DHT22;7285;50.894;5.462;2022-08-06T06:51:20;13.60;99.90
14401;DHT22;7285;50.894;5.462;2022-08-06T06:53:50;13.70;99.00
14401;DHT22;7285;50.894;5.462;2022-08-06T06:56:21;13.80;78.50
14401;DHT22;7285;50.894;5.462;2022-08-06T06:58:52;13.80;25.80
14401;DHT22;7285;50.894;5.462;2022-08-06T07:01:21;13.80;5.40
14401;DHT22;7285;50.894;5.462;2022-08-06T07:03:49;13.90;1.00
14401;DHT22;7285;50.894;5.462;2022-08-06T07:06:17;14.00;1.00
14401;DHT22;7285;50.894;5.462;2022-08-06T07:08:47;14.00;1.00
14401;DHT22;7285;50.894;5.462;2022-08-06T07:11:19;14.10;1.00
14401;DHT22;7285;50.894;5.462;2022-08-06T07:13:49;14.30;1.00
14401;DHT22;7285;50.894;5.462;2022-08-06T07:16:18;14.40;1.00
14401;DHT22;7285;50.894;5.462;2022-08-06T07:18:47;14.60;1.00
14401;DHT22;7285;50.894;5.462;2022-08-06T07:21:17;14.70;1.00
14401;DHT22;7285;50.894;5.462;2022-08-06T07:23:45;15.00;1.00
14401;DHT22;7285;50.894;5.462;2022-08-06T07:26:17;15.20;1.00
14401;DHT22;7285;50.894;5.462;2022-08-06T07:28:46;15.40;1.00
14401;DHT22;7285;50.894;5.462;2022-08-06T07:31:15;15.50;1.00
14401;DHT22;7285;50.894;5.462;2022-08-06T07:33:44;15.70;1.00
14401;DHT22;7285;50.894;5.462;2022-08-06T07:36:12;15.70;1.00
14401;DHT22;7285;50.894;5.462;2022-08-06T07:38:41;15.90;1.00
14401;DHT22;7285;50.894;5.462;2022-08-06T07:41:11;16.10;1.00
14401;DHT22;7285;50.894;5.462;2022-08-06T07:43:43;16.20;1.00
14401;DHT22;7285;50.894;5.462;2022-08-06T07:46:17;16.30;1.00
14401;DHT22;7285;50.894;5.462;2022-08-06T07:48:49;16.40;1.00
14401;DHT22;7285;50.894;5.462;2022-08-06T07:51:17;16.50;1.00
14401;DHT22;7285;50.894;5.462;2022-08-06T07:53:45;16.60;1.00
14401;DHT22;7285;50.894;5.462;2022-08-06T07:56:13;16.80;1.00
14401;DHT22;7285;50.894;5.462;2022-08-06T07:58:40;16.90;99.90
14401;DHT22;7285;50.894;5.462;2022-08-06T08:01:08;17.20;1.00
14401;DHT22;7285;50.894;5.462;2022-08-06T08:03:37;17.40;99.90
14401;DHT22;7285;50.894;5.462;2022-08-06T08:06:23;17.60;99.90
14401;DHT22;7285;50.894;5.462;2022-08-06T08:08:55;17.50;99.90
14401;DHT22;7285;50.894;5.462;2022-08-06T08:11:24;17.60;99.90
14401;DHT22;7285;50.894;5.462;2022-08-06T08:13:53;17.70;99.90
14401;DHT22;7285;50.894;5.462;2022-08-06T08:16:21;17.60;99.90
14401;DHT22;7285;50.894;5.462;2022-08-06T08:18:49;17.70;99.90
14401;DHT22;7285;50.894;5.462;2022-08-06T08:21:16;17.60;99.90
14401;DHT22;7285;50.894;5.462;2022-08-06T08:23:44;17.70;99.90
14401;DHT22;7285;50.894;5.462;2022-08-06T08:26:12;17.70;99.90
14401;DHT22;7285;50.894;5.462;2022-08-06T08:28:39;17.70;99.90
14401;DHT22;7285;50.894;5.462;2022-08-06T08:31:06;17.70;99.90
14401;DHT22;7285;50.894;5.462;2022-08-06T08:33:34;17.80;99.90
14401;DHT22;7285;50.894;5.462;2022-08-06T08:36:04;18.10;99.90
14401;DHT22;7285;50.894;5.462;2022-08-06T08:38:31;18.20;99.90
14401;DHT22;7285;50.894;5.462;2022-08-06T08:41:01;18.30;99.90
14401;DHT22;7285;50.894;5.462;2022-08-06T08:43:38;18.50;99.90
14401;DHT22;7285;50.894;5.462;2022-08-06T08:46:07;18.60;99.90
14401;DHT22;7285;50.894;5.462;2022-08-06T08:48:35;18.90;99.90
14401;DHT22;7285;50.894;5.462;2022-08-06T08:51:04;19.10;99.90
14401;DHT22;7285;50.894;5.462;2022-08-06T08:53:37;19.30;99.90
14401;DHT22;7285;50.894;5.462;2022-08-06T08:56:06;19.30;99.90
14401;DHT22;7285;50.894;5.462;2022-08-06T08:58:34;19.30;99.90
14401;DHT22;7285;50.894;5.462;2022-08-06T09:01:05;19.40;99.90
14401;DHT22;7285;50.894;5.462;2022-08-06T09:03:34;19.70;99.90
14401;DHT22;7285;50.894;5.462;2022-08-06T09:06:03;19.70;99.90
14401;DHT22;7285;50.894;5.462;2022-08-06T09:08:31;19.90;99.90
14401;DHT22;7285;50.894;5.462;2022-08-06T09:10:59;20.20;99.90
14401;DHT22;7285;50.894;5.462;2022-08-06T09:13:27;20.40;99.90
14401;DHT22;7285;50.894;5.462;2022-08-06T09:15:54;20.70;99.90
14401;DHT22;7285;50.894;5.462;2022-08-06T09:18:22;20.60;99.90
14401;DHT22;7285;50.894;5.462;2022-08-06T09:20:50;20.70;99.90
14401;DHT22;7285;50.894;5.462;2022-08-06T09:23:19;20.90;99.90
14401;DHT22;7285;50.894;5.462;2022-08-06T09:25:47;21.10;99.90
14401;DHT22;7285;50.894;5.462;2022-08-06T09:28:28;20.80;99.90
14401;DHT22;7285;50.894;5.462;2022-08-06T09:31:00;20.40;99.90
14401;DHT22;7285;50.894;5.462;2022-08-06T09:33:28;20.50;99.90
14401;DHT22;7285;50.894;5.462;2022-08-06T09:36:01;20.80;99.90
14401;DHT22;7285;50.894;5.462;2022-08-06T09:38:30;20.90;99.90
14401;DHT22;7285;50.894;5.462;2022-08-06T09:41:08;20.60;99.90
14401;DHT22;7285;50.894;5.462;2022-08-06T09:43:36;20.70;99.90
14401;DHT22;7285;50.894;5.462;2022-08-06T09:46:03;20.60;99.90
14401;DHT22;7285;50.894;5.462;2022-08-06T09:48:30;20.60;99.90
14401;DHT22;7285;50.894;5.462;2022-08-06T09:50:57;20.40;99.90
14401;DHT22;7285;50.894;5.462;2022-08-06T09:53:25;20.10;99.90
14401;DHT22;7285;50.894;5.462;2022-08-06T09:55:54;20.30;99.90
14401;DHT22;7285;50.894;5.462;2022-08-06T09:58:29;20.90;99.90
14401;DHT22;7285;50.894;5.462;2022-08-06T10:00:57;21.20;99.90
14401;DHT22;7285;50.894;5.462;2022-08-06T10:03:39;21.30;99.90
14401;DHT22;7285;50.894;5.462;2022-08-06T10:06:09;21.80;99.90
14401;DHT22;7285;50.894;5.462;2022-08-06T10:08:37;21.80;99.90
14401;DHT22;7285;50.894;5.462;2022-08-06T10:11:07;21.90;99.90
14401;DHT22;7285;50.894;5.462;2022-08-06T10:13:35;21.90;99.90
14401;DHT22;7285;50.894;5.462;2022-08-06T10:16:15;21.90;99.90
14401;DHT22;7285;50.894;5.462;2022-08-06T10:18:43;22.00;99.90
14401;DHT22;7285;50.894;5.462;2022-08-06T10:21:14;22.30;99.90
14401;DHT22;7285;50.894;5.462;2022-08-06T10:23:45;22.50;99.90
14401;DHT22;7285;50.894;5.462;2022-08-06T10:26:19;22.40;99.90
14401;DHT22;7285;50.894;5.462;2022-08-06T10:28:48;22.20;99.90
14401;DHT22;7285;50.894;5.462;2022-08-06T10:31:18;22.50;99.90
14401;DHT22;7285;50.894;5.462;2022-08-06T10:33:48;22.80;99.90
14401;DHT22;7285;50.894;5.462;2022-08-06T10:36:19;23.00;99.90
14401;DHT22;7285;50.894;5.462;2022-08-06T10:38:49;23.20;99.90
14401;DHT22;7285;50.894;5.462;2022-08-06T10:41:18;23.40;99.90
14401;DHT22;7285;50.894;5.462;2022-08-06T10:43:45;23.20;94.90
14401;DHT22;7285;50.894;5.462;2022-08-06T10:46:13;23.40;99.90
14401;DHT22;7285;50.894;5.462;2022-08-06T10:48:43;23.00;97.70
14401;DHT22;7285;50.894;5.462;2022-08-06T10:51:12;22.50;91.70
14401;DHT22;7285;50.894;5.462;2022-08-06T10:53:41;22.50;92.80
14401;DHT22;7285;50.894;5.462;2022-08-06T10:56:11;23.00;91.50
14401;DHT22;7285;50.894;5.462;2022-08-06T10:58:41;23.80;91.80
14401;DHT22;7285;50.894;5.462;2022-08-06T11:01:10;23.60;85.60
14401;DHT22;7285;50.894;5.462;2022-08-06T11:03:51;23.60;93.50
14401;DHT22;7285;50.894;5.462;2022-08-06T11:06:41;23.20;92.60
14401;DHT22;7285;50.894;5.462;2022-08-06T11:12:13;23.00;80.00
14401;DHT22;7285;50.894;5.462;2022-08-06T11:14:45;23.40;79.00
14401;DHT22;7285;50.894;5.462;2022-08-06T11:17:12;24.20;91.20
14401;DHT22;7285;50.894;5.462;2022-08-06T11:19:42;24.40;86.40
14401;DHT22;7285;50.894;5.462;2022-08-06T11:22:34;23.90;90.40
14401;DHT22;7285;50.894;5.462;2022-08-06T11:25:03;23.60;72.50
14401;DHT22;7285;50.894;5.462;2022-08-06T11:27:50;22.90;60.30
14401;DHT22;7285;50.894;5.462;2022-08-06T11:30:20;23.00;61.80
14401;DHT22;7285;50.894;5.462;2022-08-06T11:32:49;22.70;58.00
14401;DHT22;7285;50.894;5.462;2022-08-06T11:35:41;22.50;63.00
14401;DHT22;7285;50.894;5.462;2022-08-06T11:38:11;22.30;54.00
14401;DHT22;7285;50.894;5.462;2022-08-06T11:40:55;22.50;54.90
14401;DHT22;7285;50.894;5.462;2022-08-06T11:43:42;22.30;45.50
14401;DHT22;7285;50.894;5.462;2022-08-06T11:46:32;22.00;45.10
14401;DHT22;7285;50.894;5.462;2022-08-06T11:49:17;21.90;57.90
14401;DHT22;7285;50.894;5.462;2022-08-06T11:51:46;22.70;61.80
14401;DHT22;7285;50.894;5.462;2022-08-06T11:54:15;23.20;62.30
14401;DHT22;7285;50.894;5.462;2022-08-06T11:57:17;23.30;55.60
14401;DHT22;7285;50.894;5.462;2022-08-06T11:59:46;23.90;62.50
14401;DHT22;7285;50.894;5.462;2022-08-06T12:02:17;24.00;55.20
14401;DHT22;7285;50.894;5.462;2022-08-06T12:05:04;24.40;55.60
14401;DHT22;7285;50.894;5.462;2022-08-06T12:07:33;24.50;50.50
14401;DHT22;7285;50.894;5.462;2022-08-06T12:10:07;25.00;57.60
14401;DHT22;7285;50.894;5.462;2022-08-06T12:12:39;25.20;55.90
14401;DHT22;7285;50.894;5.462;2022-08-06T12:15:36;24.90;83.50
14401;DHT22;7285;50.894;5.462;2022-08-06T12:18:04;24.00;44.70
14401;DHT22;7285;50.894;5.462;2022-08-06T12:20:33;23.40;43.00
14401;DHT22;7285;50.894;5.462;2022-08-06T12:23:01;23.20;36.00
14401;DHT22;7285;50.894;5.462;2022-08-06T12:25:30;23.00;47.60
14401;DHT22;7285;50.894;5.462;2022-08-06T12:27:57;22.80;44.80
14401;DHT22;7285;50.894;5.462;2022-08-06T12:30:24;23.60;49.10
14401;DHT22;7285;50.894;5.462;2022-08-06T12:32:59;23.90;45.70
14401;DHT22;7285;50.894;5.462;2022-08-06T12:35:28;23.60;48.00
14401;DHT22;7285;50.894;5.462;2022-08-06T12:37:55;23.20;47.40
14401;DHT22;7285;50.894;5.462;2022-08-06T12:40:22;23.20;48.50
14401;DHT22;7285;50.894;5.462;2022-08-06T12:43:08;22.90;48.00
14401;DHT22;7285;50.894;5.462;2022-08-06T12:45:35;22.60;36.50
14401;DHT22;7285;50.894;5.462;2022-08-06T12:48:04;22.40;34.30
14401;DHT22;7285;50.894;5.462;2022-08-06T12:50:35;22.20;30.80
14401;DHT22;7285;50.894;5.462;2022-08-06T12:53:04;22.20;32.80
14401;DHT22;7285;50.894;5.462;2022-08-06T12:55:33;23.20;40.00
14401;DHT22;7285;50.894;5.462;2022-08-06T12:58:01;24.20;42.10
14401;DHT22;7285;50.894;5.462;2022-08-06T13:00:29;24.80;44.40
14401;DHT22;7285;50.894;5.462;2022-08-06T13:02:57;25.10;36.50
14401;DHT22;7285;50.894;5.462;2022-08-06T13:05:24;24.20;33.70
14401;DHT22;7285;50.894;5.462;2022-08-06T13:07:55;23.40;33.20
14401;DHT22;7285;50.894;5.462;2022-08-06T13:10:23;23.80;34.80
14401;DHT22;7285;50.894;5.462;2022-08-06T13:12:54;23.70;26.80
14401;DHT22;7285;50.894;5.462;2022-08-06T13:15:22;24.00;26.90
14401;DHT22;7285;50.894;5.462;2022-08-06T13:18:03;24.80;24.70
14401;DHT22;7285;50.894;5.462;2022-08-06T13:20:38;25.70;33.20
14401;DHT22;7285;50.894;5.462;2022-08-06T13:23:07;25.90;31.20
14401;DHT22;7285;50.894;5.462;2022-08-06T13:25:41;26.20;31.00
14401;DHT22;7285;50.894;5.462;2022-08-06T13:28:09;25.90;23.10
14401;DHT22;7285;50.894;5.462;2022-08-06T13:30:36;25.00;20.40
14401;DHT22;7285;50.894;5.462;2022-08-06T13:33:13;24.50;14.80
14401;DHT22;7285;50.894;5.462;2022-08-06T13:35:40;24.10;18.60
14401;DHT22;7285;50.894;5.462;2022-08-06T13:38:09;23.60;15.30
14401;DHT22;7285;50.894;5.462;2022-08-06T13:40:41;23.30;14.20
14401;DHT22;7285;50.894;5.462;2022-08-06T13:43:09;23.80;33.70
14401;DHT22;7285;50.894;5.462;2022-08-06T13:45:37;24.80;38.40
14401;DHT22;7285;50.894;5.462;2022-08-06T13:48:05;25.50;32.50
14401;DHT22;7285;50.894;5.462;2022-08-06T13:50:33;25.30;28.50
14401;DHT22;7285;50.894;5.462;2022-08-06T13:53:00;24.50;24.90
14401;DHT22;7285;50.894;5.462;2022-08-06T13:55:29;24.60;29.30
14401;DHT22;7285;50.894;5.462;2022-08-06T13:57:57;25.20;26.70
14401;DHT22;7285;50.894;5.462;2022-08-06T14:00:24;25.60;17.60
14401;DHT22;7285;50.894;5.462;2022-08-06T14:02:52;25.90;14.10
14401;DHT22;7285;50.894;5.462;2022-08-06T14:05:19;25.90;13.10
14401;DHT22;7285;50.894;5.462;2022-08-06T14:07:46;25.60;7.60
14401;DHT22;7285;50.894;5.462;2022-08-06T14:10:13;26.00;16.40
14401;DHT22;7285;50.894;5.462;2022-08-06T14:12:42;26.20;24.60
14401;DHT22;7285;50.894;5.462;2022-08-06T14:15:09;26.70;9.20
14401;DHT22;7285;50.894;5.462;2022-08-06T14:17:36;26.80;20.90
14401;DHT22;7285;50.894;5.462;2022-08-06T14:20:04;26.30;29.20
14401;DHT22;7285;50.894;5.462;2022-08-06T14:22:31;25.50;28.50
14401;DHT22;7285;50.894;5.462;2022-08-06T14:24:58;25.10;23.00
14401;DHT22;7285;50.894;5.462;2022-08-06T14:27:25;24.90;20.40
14401;DHT22;7285;50.894;5.462;2022-08-06T14:29:53;25.20;26.60
14401;DHT22;7285;50.894;5.462;2022-08-06T14:32:20;25.70;29.50
14401;DHT22;7285;50.894;5.462;2022-08-06T14:34:47;25.90;20.20
14401;DHT22;7285;50.894;5.462;2022-08-06T14:37:16;25.90;20.60
14401;DHT22;7285;50.894;5.462;2022-08-06T14:39:43;26.00;7.80
14401;DHT22;7285;50.894;5.462;2022-08-06T14:42:10;26.40;1.00
14401;DHT22;7285;50.894;5.462;2022-08-06T14:44:56;27.00;1.00
14401;DHT22;7285;50.894;5.462;2022-08-06T14:47:25;27.60;1.00
14401;DHT22;7285;50.894;5.462;2022-08-06T14:49:52;27.00;1.00
14401;DHT22;7285;50.894;5.462;2022-08-06T14:52:19;26.50;1.00
14401;DHT22;7285;50.894;5.462;2022-08-06T14:54:46;26.60;1.00
14401;DHT22;7285;50.894;5.462;2022-08-06T14:57:13;26.90;1.00
14401;DHT22;7285;50.894;5.462;2022-08-06T14:59:40;26.90;1.00
14401;DHT22;7285;50.894;5.462;2022-08-06T15:02:08;27.00;1.00
14401;DHT22;7285;50.894;5.462;2022-08-06T15:04:35;27.20;1.00
14401;DHT22;7285;50.894;5.462;2022-08-06T15:07:02;27.30;1.00
14401;DHT22;7285;50.894;5.462;2022-08-06T15:09:30;27.40;1.00
14401;DHT22;7285;50.894;5.462;2022-08-06T15:11:58;27.50;1.00
14401;DHT22;7285;50.894;5.462;2022-08-06T15:14:25;27.00;1.00
14401;DHT22;7285;50.894;5.462;2022-08-06T15:16:52;27.40;1.00
14401;DHT22;7285;50.894;5.462;2022-08-06T15:19:21;27.50;1.00
14401;DHT22;7285;50.894;5.462;2022-08-06T15:21:48;27.40;1.00
14401;DHT22;7285;50.894;5.462;2022-08-06T15:24:15;27.60;1.00
14401;DHT22;7285;50.894;5.462;2022-08-06T15:26:42;27.60;1.00
14401;DHT22;7285;50.894;5.462;2022-08-06T15:29:09;27.30;1.00
14401;DHT22;7285;50.894;5.462;2022-08-06T15:31:36;27.20;1.00
14401;DHT22;7285;50.894;5.462;2022-08-06T15:34:03;27.40;1.00
14401;DHT22;7285;50.894;5.462;2022-08-06T15:36:32;27.50;1.00
14401;DHT22;7285;50.894;5.462;2022-08-06T15:38:59;27.60;1.00
14401;DHT22;7285;50.894;5.462;2022-08-06T15:41:26;27.80;1.00
14401;DHT22;7285;50.894;5.462;2022-08-06T15:43:57;27.80;1.00
14401;DHT22;7285;50.894;5.462;2022-08-06T15:46:24;27.80;1.00
14401;DHT22;7285;50.894;5.462;2022-08-06T15:48:51;27.80;1.00
14401;DHT22;7285;50.894;5.462;2022-08-06T15:51:23;27.50;1.00
14401;DHT22;7285;50.894;5.462;2022-08-06T15:53:52;27.60;1.00
14401;DHT22;7285;50.894;5.462;2022-08-06T15:56:19;28.00;1.00
14401;DHT22;7285;50.894;5.462;2022-08-06T15:58:49;28.00;1.00
14401;DHT22;7285;50.894;5.462;2022-08-06T16:01:18;27.60;1.00
14401;DHT22;7285;50.894;5.462;2022-08-06T16:03:45;27.60;1.00
14401;DHT22;7285;50.894;5.462;2022-08-06T16:06:12;27.60;1.00
14401;DHT22;7285;50.894;5.462;2022-08-06T16:08:39;27.50;1.00
14401;DHT22;7285;50.894;5.462;2022-08-06T16:11:09;26.90;1.00
14401;DHT22;7285;50.894;5.462;2022-08-06T16:13:37;27.10;1.00
14401;DHT22;7285;50.894;5.462;2022-08-06T16:16:05;27.40;1.00
14401;DHT22;7285;50.894;5.462;2022-08-06T16:18:32;27.70;1.00